Time;durP1;ratioP1;P1;durP2;ratioP2;P2;SDS_P1;SDS_P2;PMS_P1;PMS_P2;Temp;Humidity;BMP_temperature;BMP_pressure;BME280_temperature;BME280_humidity;BME280_pressure;Samples;Min_cycle;Max_cycle;Signal;HPM_P1;HPM_P2
2021/05/23 00:00:43;;;;;;;0.70;0.70;;;11.10;93.00;;;;;;5054053;28;20021;-76
2021/05/23 00:03:11;;;;;;;0.60;0.57;;;11.10;93.00;;;;;;5054172;28;20095;-76
2021/05/23 00:05:39;;;;;;;0.50;0.50;;;11.10;93.00;;;;;;5053321;28;20040;-76
2021/05/23 00:08:11;;;;;;;1.40;0.95;;;11.10;93.00;;;;;;5036098;28;20455;-76
2021/05/23 00:10:57;;;;;;;1.35;0.90;;;11.10;92.90;;;;;;5053973;28;20426;-75
2021/05/23 00:13:25;;;;;;;0.90;0.85;;;11.10;92.90;;;;;;5053733;28;20087;-76
2021/05/23 00:16:26;;;;;;;2.80;0.90;;;11.10;92.90;;;;;;5053836;28;20025;-76
2021/05/23 00:18:53;;;;;;;1.83;0.80;;;11.00;92.80;;;;;;4953462;29;20211;-76
2021/05/23 00:21:21;;;;;;;2.38;1.05;;;11.00;92.90;;;;;;4953714;29;20043;-74
2021/05/23 00:23:47;;;;;;;1.23;0.80;;;11.00;93.00;;;;;;4953695;29;20055;-76
2021/05/23 00:26:13;;;;;;;0.60;0.60;;;10.90;93.00;;;;;;4953524;28;20067;-76
2021/05/23 00:28:39;;;;;;;1.45;1.00;;;11.00;93.00;;;;;;4953806;28;20453;-75
2021/05/23 00:31:05;;;;;;;0.95;0.93;;;10.90;92.90;;;;;;4953535;28;20510;-75
2021/05/23 00:33:31;;;;;;;0.70;0.70;;;10.90;93.00;;;;;;4953081;29;20043;-76
2021/05/23 00:35:57;;;;;;;1.40;1.00;;;10.80;93.00;;;;;;4953520;29;20020;-76
2021/05/23 00:38:23;;;;;;;0.82;0.82;;;10.90;93.00;;;;;;4953373;29;20047;-75
2021/05/23 00:40:49;;;;;;;1.27;0.95;;;10.90;93.00;;;;;;4953313;28;20046;-74
2021/05/23 00:43:17;;;;;;;1.40;1.27;;;10.90;92.90;;;;;;4953429;28;20031;-75
2021/05/23 00:45:45;;;;;;;1.30;0.95;;;10.90;92.90;;;;;;4953181;28;20114;-77
2021/05/23 00:48:14;;;;;;;1.45;1.00;;;10.90;92.90;;;;;;4936918;29;20030;-76
2021/05/23 00:50:40;;;;;;;1.00;0.90;;;10.90;92.90;;;;;;4953139;28;20019;-75
2021/05/23 00:53:07;;;;;;;1.42;1.33;;;10.90;92.90;;;;;;5014779;28;20322;-76
2021/05/23 00:55:33;;;;;;;1.33;1.20;;;10.90;92.90;;;;;;5053139;28;20025;-75
2021/05/23 00:57:59;;;;;;;1.35;1.25;;;10.90;92.90;;;;;;5053139;28;20107;-77
2021/05/23 01:00:44;;;;;;;1.38;1.17;;;10.80;93.00;;;;;;5053278;28;20524;-77
2021/05/23 01:03:31;;;;;;;0.90;0.90;;;10.80;93.00;;;;;;5052793;28;20078;-76
2021/05/23 01:05:58;;;;;;;1.23;0.95;;;10.70;93.00;;;;;;5053030;28;20112;-76
2021/05/23 01:08:25;;;;;;;1.42;1.30;;;10.80;93.00;;;;;;5052913;28;20469;-76
2021/05/23 01:11:21;;;;;;;1.45;1.10;;;10.70;93.00;;;;;;5053159;28;20025;-76
2021/05/23 01:13:46;;;;;;;1.55;1.00;;;10.70;93.00;;;;;;4952962;29;20051;-77
2021/05/23 01:16:23;;;;;;;2.03;1.13;;;10.70;93.10;;;;;;4952397;29;20142;-76
2021/05/23 01:19:01;;;;;;;0.88;0.75;;;10.70;93.30;;;;;;4953067;29;20062;-75
2021/05/23 01:21:30;;;;;;;1.30;0.95;;;10.70;93.00;;;;;;4953087;29;20073;-75
2021/05/23 01:24:03;;;;;;;;;;;10.70;93.00;;;;;;4953547;29;20035;-75
2021/05/23 01:26:37;;;;;;;1.30;0.90;;;10.70;93.00;;;;;;4953039;29;19906;-75
2021/05/23 01:29:06;;;;;;;1.25;0.88;;;10.70;93.00;;;;;;4952892;29;20027;-75
2021/05/23 01:31:33;;;;;;;0.80;0.80;;;10.70;93.00;;;;;;4935454;29;20028;-75
2021/05/23 01:34:00;;;;;;;0.93;0.70;;;10.60;93.00;;;;;;4952169;29;20041;-75
2021/05/23 01:36:32;;;;;;;1.17;1.08;;;10.60;93.00;;;;;;4952133;29;20071;-75
2021/05/23 01:39:00;;;;;;;1.17;0.77;;;10.70;93.00;;;;;;4952753;29;20035;-76
2021/05/23 01:41:26;;;;;;;1.27;1.02;;;10.70;93.00;;;;;;4952735;29;20399;-76
2021/05/23 01:43:52;;;;;;;1.02;0.80;;;10.70;93.00;;;;;;4952909;29;20039;-76
2021/05/23 01:46:18;;;;;;;0.75;0.70;;;10.80;92.90;;;;;;4952263;29;20082;-75
2021/05/23 01:48:44;;;;;;;1.48;0.90;;;10.80;92.90;;;;;;4952829;29;20420;-75
2021/05/23 01:51:10;;;;;;;3.05;1.30;;;10.80;92.80;;;;;;5025902;28;20069;-76
2021/05/23 01:53:37;;;;;;;1.00;0.70;;;10.80;92.80;;;;;;5032667;28;20025;-76
2021/05/23 01:56:05;;;;;;;0.52;0.52;;;10.80;92.80;;;;;;5032738;28;20517;-76
2021/05/23 01:58:31;;;;;;;0.88;0.70;;;10.70;92.90;;;;;;5032698;28;20025;-75
2021/05/23 02:00:57;;;;;;;1.27;0.90;;;10.80;92.90;;;;;;5032153;28;20022;-76
2021/05/23 02:03:24;;;;;;;0.75;0.75;;;10.70;92.90;;;;;;5034229;28;20358;-75
2021/05/23 02:05:52;;;;;;;1.20;0.90;;;10.80;92.80;;;;;;5036354;28;20020;-75
2021/05/23 02:08:19;;;;;;;0.98;0.90;;;10.80;92.80;;;;;;5036258;28;20032;-76
2021/05/23 02:10:46;;;;;;;1.80;0.50;;;10.70;92.70;;;;;;5036378;28;20036;-76
2021/05/23 02:13:12;;;;;;;0.75;0.75;;;10.70;92.80;;;;;;5036254;28;20018;-75
2021/05/23 02:15:38;;;;;;;0.55;0.55;;;10.60;92.80;;;;;;5035769;28;20033;-76
2021/05/23 02:18:05;;;;;;;0.70;0.65;;;10.60;92.80;;;;;;5036213;28;20083;-76
2021/05/23 02:20:32;;;;;;;1.20;0.60;;;10.60;92.80;;;;;;5018343;28;20101;-76
2021/05/23 02:22:59;;;;;;;0.52;0.50;;;10.50;92.90;;;;;;5017815;28;20045;-76
2021/05/23 02:25:27;;;;;;;0.95;0.70;;;10.50;92.90;;;;;;5036197;28;20022;-76
2021/05/23 02:28:01;;;;;;;0.43;0.43;;;10.50;93.00;;;;;;5035981;28;20017;-75
2021/05/23 02:30:38;;;;;;;0.40;0.38;;;10.40;93.00;;;;;;5035527;28;20036;-76
2021/05/23 02:33:05;;;;;;;0.77;0.65;;;10.50;93.00;;;;;;5018198;28;20412;-76
2021/05/23 02:35:32;;;;;;;0.47;0.47;;;10.50;93.00;;;;;;5035645;28;20029;-76
2021/05/23 02:37:59;;;;;;;1.30;0.80;;;10.50;92.90;;;;;;5017879;28;20041;-77
2021/05/23 02:40:28;;;;;;;1.27;0.77;;;10.50;92.90;;;;;;5035722;28;20025;-77
2021/05/23 02:42:54;;;;;;;0.73;0.70;;;10.50;92.90;;;;;;5035271;28;20038;-76
2021/05/23 02:45:20;;;;;;;0.82;0.77;;;10.50;92.90;;;;;;5035510;28;20024;-77
2021/05/23 02:47:49;;;;;;;0.70;0.70;;;10.50;92.90;;;;;;5035653;28;20049;-76
2021/05/23 02:50:21;;;;;;;0.70;0.60;;;10.60;92.80;;;;;;5035608;28;20020;-78
2021/05/23 02:52:47;;;;;;;1.10;0.90;;;10.60;92.80;;;;;;5035667;28;20034;-75
2021/05/23 02:55:13;;;;;;;0.50;0.50;;;10.60;92.70;;;;;;5035646;28;20025;-75
2021/05/23 02:57:40;;;;;;;0.75;0.75;;;10.50;92.70;;;;;;5034898;28;20085;-76
2021/05/23 03:00:09;;;;;;;0.70;0.65;;;10.50;92.70;;;;;;5017464;28;20026;-75
2021/05/23 03:02:35;;;;;;;0.80;0.52;;;10.60;92.70;;;;;;5035125;28;20375;-74
2021/05/23 03:05:03;;;;;;;1.58;0.43;;;10.60;92.70;;;;;;5035171;28;20021;-76
2021/05/23 03:07:29;;;;;;;0.85;0.73;;;10.50;92.60;;;;;;5035239;28;20470;-75
2021/05/23 03:09:55;;;;;;;1.25;0.70;;;10.50;92.60;;;;;;5035104;28;20025;-76
2021/05/23 03:12:20;;;;;;;0.55;0.52;;;10.50;92.60;;;;;;5034760;28;20083;-76
2021/05/23 03:14:46;;;;;;;1.05;0.60;;;10.50;92.60;;;;;;5034176;28;20021;-76
2021/05/23 03:17:11;;;;;;;1.27;0.88;;;10.50;92.70;;;;;;5035001;28;20100;-77
2021/05/23 03:19:38;;;;;;;0.73;0.63;;;10.50;92.80;;;;;;5034826;28;20588;-76
2021/05/23 03:22:05;;;;;;;1.35;0.80;;;10.40;92.80;;;;;;5017225;28;20056;-76
2021/05/23 03:24:35;;;;;;;1.45;1.00;;;10.40;92.80;;;;;;5035028;28;20040;-77
2021/05/23 03:27:01;;;;;;;0.80;0.80;;;10.40;92.70;;;;;;5016774;28;20083;-75
2021/05/23 03:29:27;;;;;;;1.40;0.93;;;10.40;92.70;;;;;;5034735;28;20432;-75
2021/05/23 03:31:52;;;;;;;1.50;0.85;;;10.50;92.70;;;;;;5039179;28;20021;-76
2021/05/23 03:34:18;;;;;;;1.13;0.85;;;10.50;92.70;;;;;;5054318;28;20025;-76
2021/05/23 03:36:43;;;;;;;1.23;0.75;;;10.50;92.70;;;;;;5054340;28;20056;-77
2021/05/23 03:39:09;;;;;;;1.13;0.98;;;10.50;92.70;;;;;;5054586;28;20104;-76
2021/05/23 03:41:35;;;;;;;1.50;0.98;;;10.50;92.70;;;;;;5053968;28;20039;-76
2021/05/23 03:44:01;;;;;;;1.27;1.17;;;10.50;92.70;;;;;;5054439;28;20036;-76
2021/05/23 03:46:26;;;;;;;0.95;0.93;;;10.50;92.70;;;;;;5054244;28;20475;-76
2021/05/23 03:48:52;;;;;;;1.80;1.27;;;10.40;92.70;;;;;;5054396;28;20060;-75
2021/05/23 03:51:17;;;;;;;1.08;0.77;;;10.40;92.80;;;;;;5054355;28;20068;-76
2021/05/23 03:53:43;;;;;;;1.98;1.27;;;10.40;92.80;;;;;;5054350;28;20055;-76
2021/05/23 03:56:08;;;;;;;0.70;0.70;;;10.50;92.90;;;;;;5053728;28;20389;-75
2021/05/23 03:58:34;;;;;;;1.05;0.93;;;10.50;92.80;;;;;;5054209;28;20377;-76
2021/05/23 04:01:00;;;;;;;1.77;1.05;;;10.60;92.80;;;;;;5036176;28;20366;-76
2021/05/23 04:03:28;;;;;;;1.35;1.13;;;10.60;92.70;;;;;;5054026;28;20075;-77
2021/05/23 04:05:53;;;;;;;1.15;0.90;;;10.70;92.70;;;;;;5054019;28;20021;-78
2021/05/23 04:08:19;;;;;;;1.02;0.93;;;10.70;92.70;;;;;;5036186;28;20477;-76
2021/05/23 04:10:53;;;;;;;1.42;1.05;;;10.70;92.70;;;;;;5035594;28;20025;-77
2021/05/23 04:13:21;;;;;;;1.30;1.17;;;10.80;92.70;;;;;;5036009;28;20052;-75
2021/05/23 04:15:47;;;;;;;1.42;1.13;;;10.80;92.70;;;;;;5053915;28;20434;-75
2021/05/23 04:18:12;;;;;;;1.55;0.98;;;10.80;92.70;;;;;;5035887;28;20124;-77
2021/05/23 04:20:38;;;;;;;1.75;1.30;;;10.80;92.70;;;;;;5035941;28;20058;-76
2021/05/23 04:23:03;;;;;;;1.13;1.02;;;10.80;92.70;;;;;;5053737;28;20366;-76
2021/05/23 04:25:29;;;;;;;1.48;1.38;;;10.80;92.80;;;;;;5053074;28;20143;-75
2021/05/23 04:27:55;;;;;;;2.55;1.50;;;10.80;92.80;;;;;;5053658;28;20052;-75
2021/05/23 04:30:22;;;;;;;1.58;1.13;;;10.90;92.80;;;;;;5053674;28;20028;-76
2021/05/23 04:32:48;;;;;;;2.58;1.70;;;10.90;92.80;;;;;;5053491;28;20017;-76
2021/05/23 04:35:15;;;;;;;1.92;1.30;;;10.90;92.80;;;;;;5053391;28;20465;-77
2021/05/23 04:37:42;;;;;;;1.77;1.20;;;10.90;92.70;;;;;;5053426;28;20060;-76
2021/05/23 04:40:08;;;;;;;1.77;1.42;;;11.00;92.80;;;;;;5053009;28;20017;-75
2021/05/23 04:42:34;;;;;;;2.55;1.50;;;10.90;92.70;;;;;;5035487;28;20028;-76
2021/05/23 04:44:59;;;;;;;2.03;1.63;;;11.00;92.80;;;;;;5053966;28;20029;-75
2021/05/23 04:47:27;;;;;;;2.00;1.33;;;11.00;92.80;;;;;;5053396;28;20031;-76
2021/05/23 04:49:52;;;;;;;3.35;2.25;;;11.00;92.80;;;;;;5053295;28;20059;-77
2021/05/23 04:52:18;;;;;;;3.08;1.88;;;11.10;92.80;;;;;;5053365;28;20417;-77
2021/05/23 04:54:44;;;;;;;2.60;1.50;;;11.10;92.80;;;;;;5052863;28;20079;-76
2021/05/23 04:57:09;;;;;;;2.03;1.60;;;11.20;92.80;;;;;;5053282;28;20081;-76
2021/05/23 04:59:35;;;;;;;2.72;1.50;;;11.20;92.70;;;;;;5053483;28;20104;-76
2021/05/23 05:02:01;;;;;;;2.90;1.45;;;11.30;92.70;;;;;;5053138;28;20033;-76
2021/05/23 05:04:27;;;;;;;3.15;1.73;;;11.40;92.70;;;;;;5053184;28;20021;-77
2021/05/23 05:06:52;;;;;;;3.22;1.75;;;11.40;92.60;;;;;;5053227;28;20040;-76
2021/05/23 05:09:18;;;;;;;4.68;2.05;;;11.50;92.60;;;;;;5034783;28;20017;-77
2021/05/23 05:11:43;;;;;;;3.00;1.55;;;11.50;92.70;;;;;;5053038;28;20079;-76
2021/05/23 05:14:10;;;;;;;3.58;2.50;;;11.50;92.70;;;;;;5053084;28;20090;-76
2021/05/23 05:16:37;;;;;;;3.33;2.00;;;11.50;92.70;;;;;;5053142;28;20029;-76
2021/05/23 05:19:03;;;;;;;3.22;2.42;;;11.50;92.70;;;;;;5052903;28;20100;-75
2021/05/23 05:21:29;;;;;;;2.85;1.73;;;11.60;92.70;;;;;;5052955;28;20436;-75
2021/05/23 05:23:54;;;;;;;3.85;2.20;;;11.50;92.70;;;;;;5052572;28;20031;-76
2021/05/23 05:26:20;;;;;;;4.28;2.30;;;11.60;92.70;;;;;;5053002;28;20033;-79
2021/05/23 05:28:45;;;;;;;4.18;2.08;;;11.60;92.70;;;;;;5052984;28;20056;-80
2021/05/23 05:31:11;;;;;;;4.45;2.60;;;11.60;92.70;;;;;;5052887;28;20021;-80
2021/05/23 05:33:36;;;;;;;3.05;2.13;;;11.60;92.70;;;;;;5029964;28;20017;-78
2021/05/23 05:36:02;;;;;;;3.58;2.38;;;11.60;92.70;;;;;;5052737;28;20083;-79
2021/05/23 05:38:27;;;;;;;3.97;2.45;;;11.60;92.80;;;;;;5036322;28;20021;-79
2021/05/23 05:40:53;;;;;;;4.45;2.20;;;11.60;92.80;;;;;;5056634;28;20025;-80
2021/05/23 05:43:19;;;;;;;2.72;1.92;;;11.70;92.80;;;;;;5056720;28;20465;-78
2021/05/23 05:45:44;;;;;;;4.25;3.00;;;11.70;92.70;;;;;;5056694;28;20485;-79
2021/05/23 05:48:10;;;;;;;4.05;2.72;;;11.70;92.80;;;;;;5056738;28;20021;-81
2021/05/23 05:50:35;;;;;;;5.43;3.28;;;11.70;92.70;;;;;;5056434;28;20036;-79
2021/05/23 05:53:01;;;;;;;5.07;3.28;;;11.70;92.80;;;;;;5056227;28;20021;-82
2021/05/23 05:55:27;;;;;;;4.47;2.60;;;11.60;92.80;;;;;;5038645;28;20028;-79
2021/05/23 05:57:52;;;;;;;3.17;2.15;;;11.60;92.90;;;;;;5056656;28;20453;-80
2021/05/23 06:00:18;;;;;;;4.15;2.28;;;11.70;92.90;;;;;;5056329;28;20048;-79
2021/05/23 06:02:44;;;;;;;4.00;2.63;;;11.80;92.90;;;;;;5056344;28;20040;-79
2021/05/23 06:05:10;;;;;;;3.60;2.55;;;11.80;92.90;;;;;;5056357;28;20020;-79
2021/05/23 06:07:35;;;;;;;3.60;2.20;;;11.80;92.90;;;;;;5055931;28;20052;-81
2021/05/23 06:10:01;;;;;;;4.10;2.40;;;11.80;92.80;;;;;;5038338;28;20090;-79
2021/05/23 06:12:26;;;;;;;4.32;2.58;;;11.90;92.80;;;;;;5056247;28;20040;-83
2021/05/23 06:14:52;;;;;;;3.88;2.40;;;11.90;92.90;;;;;;5056113;28;20013;-81
2021/05/23 06:17:17;;;;;;;3.35;2.28;;;11.90;92.80;;;;;;5056261;28;20021;-79
2021/05/23 06:19:43;;;;;;;4.45;2.72;;;11.90;92.80;;;;;;5056213;28;20025;-81
2021/05/23 06:22:08;;;;;;;5.18;2.42;;;11.90;92.80;;;;;;5055597;28;20036;-81
2021/05/23 06:24:34;;;;;;;5.53;3.33;;;11.90;92.80;;;;;;5038113;28;20017;-79
2021/05/23 06:26:59;;;;;;;5.78;3.22;;;11.90;92.80;;;;;;5056033;28;20043;-82
2021/05/23 06:29:25;;;;;;;6.68;3.60;;;11.80;92.90;;;;;;5038589;28;20372;-86
2021/05/23 06:31:50;;;;;;;5.15;3.10;;;11.70;93.00;;;;;;5038353;28;20393;-85
2021/05/23 06:34:16;;;;;;;4.50;2.75;;;11.60;93.00;;;;;;5055934;28;20021;-82
2021/05/23 06:36:41;;;;;;;3.88;2.78;;;11.60;93.10;;;;;;5037567;28;20049;-81
2021/05/23 06:39:08;;;;;;;3.65;2.40;;;11.40;93.10;;;;;;5055896;28;20036;-80
2021/05/23 06:41:35;;;;;;;5.63;2.90;;;11.30;93.30;;;;;;5056168;28;20094;-84
2021/05/23 06:44:01;;;;;;;5.72;3.17;;;11.20;93.40;;;;;;5057312;28;20473;-86
2021/05/23 06:46:26;;;;;;;5.18;3.35;;;11.10;93.50;;;;;;5057216;28;20024;-89
2021/05/23 06:48:52;;;;;;;4.38;2.35;;;11.00;93.60;;;;;;5056218;28;20469;-89
2021/05/23 06:51:18;;;;;;;3.65;2.95;;;11.00;93.60;;;;;;5056354;28;20067;-87
2021/05/23 06:53:43;;;;;;;4.57;3.25;;;11.00;93.60;;;;;;5038878;28;20488;-88
2021/05/23 06:56:09;;;;;;;4.30;3.03;;;11.00;93.60;;;;;;5038889;28;20470;-86
2021/05/23 06:58:35;;;;;;;3.22;2.20;;;11.00;93.60;;;;;;5056263;28;20111;-87
2021/05/23 07:01:02;;;;;;;3.60;2.45;;;11.00;93.60;;;;;;5056538;28;20107;-85
2021/05/23 07:03:28;;;;;;;3.88;2.22;;;10.90;93.60;;;;;;5055763;28;20586;-85
2021/05/23 07:05:53;;;;;;;3.15;2.20;;;10.90;93.60;;;;;;5055310;28;20059;-90
2021/05/23 07:08:19;;;;;;;5.03;3.03;;;10.90;93.60;;;;;;5038584;28;20021;-87
2021/05/23 07:10:45;;;;;;;3.65;2.40;;;10.90;93.60;;;;;;5055789;28;20376;-84
2021/05/23 07:13:10;;;;;;;2.22;1.80;;;10.90;93.60;;;;;;5038785;28;20459;-81
2021/05/23 07:15:36;;;;;;;2.75;2.13;;;10.90;93.60;;;;;;5037397;28;20025;-77
2021/05/23 07:18:02;;;;;;;3.10;2.08;;;10.90;93.60;;;;;;5037249;28;20028;-82
2021/05/23 07:20:27;;;;;;;2.45;1.75;;;10.90;93.50;;;;;;5055333;28;20071;-85
2021/05/23 07:22:54;;;;;;;2.10;1.83;;;11.00;93.50;;;;;;5055551;28;20032;-81
2021/05/23 07:25:20;;;;;;;2.58;1.70;;;11.00;93.50;;;;;;5055196;28;20465;-83
2021/05/23 07:27:45;;;;;;;3.15;1.85;;;11.00;93.40;;;;;;5055428;28;20048;-85
2021/05/23 07:30:12;;;;;;;2.70;1.98;;;11.00;93.40;;;;;;5055283;28;20032;-79
2021/05/23 07:32:37;;;;;;;3.83;2.97;;;11.00;93.40;;;;;;5054630;28;20473;-78
2021/05/23 07:35:03;;;;;;;3.22;2.17;;;11.00;93.40;;;;;;5053452;28;20021;-78
2021/05/23 07:37:29;;;;;;;3.17;2.25;;;10.90;93.40;;;;;;5054514;28;20049;-84
2021/05/23 07:39:55;;;;;;;3.50;2.28;;;10.90;93.40;;;;;;5054852;28;20025;-78
2021/05/23 07:42:20;;;;;;;3.20;2.08;;;10.90;93.40;;;;;;5054559;28;20190;-83
2021/05/23 07:44:46;;;;;;;2.65;2.08;;;11.00;93.40;;;;;;5054475;28;20017;-82
2021/05/23 07:47:14;;;;;;;2.90;2.05;;;11.00;93.30;;;;;;5054888;28;20025;-84
2021/05/23 07:49:40;;;;;;;4.18;3.00;;;11.00;93.30;;;;;;5054321;28;20020;-80
2021/05/23 07:52:11;;;;;;;3.70;2.50;;;11.00;93.30;;;;;;5035932;28;20029;-83
2021/05/23 07:54:41;;;;;;;2.85;2.00;;;11.10;93.30;;;;;;5054302;28;20071;-78
2021/05/23 07:57:07;;;;;;;5.50;2.65;;;11.10;93.30;;;;;;5054465;28;20017;-81
2021/05/23 07:59:33;;;;;;;2.78;2.33;;;11.20;93.20;;;;;;5054273;28;20104;-80
2021/05/23 08:01:59;;;;;;;2.42;2.00;;;11.20;93.10;;;;;;5053119;28;20362;-79
2021/05/23 08:04:25;;;;;;;3.65;2.65;;;11.30;93.10;;;;;;5054023;28;20103;-81
2021/05/23 08:06:51;;;;;;;5.72;4.03;;;11.30;93.10;;;;;;5054011;28;20041;-80
2021/05/23 08:09:16;;;;;;;4.32;2.63;;;11.30;93.00;;;;;;5053900;28;20134;-79
2021/05/23 08:11:42;;;;;;;3.83;2.75;;;11.20;93.00;;;;;;5053850;28;20029;-79
2021/05/23 08:14:09;;;;;;;2.83;2.17;;;11.20;93.00;;;;;;5054179;28;20025;-80
2021/05/23 08:16:35;;;;;;;3.28;2.20;;;11.20;93.10;;;;;;5053700;28;20029;-78
2021/05/23 08:19:01;;;;;;;2.50;1.63;;;11.20;93.10;;;;;;5054069;28;20028;-77
2021/05/23 08:21:27;;;;;;;2.35;1.70;;;11.30;93.10;;;;;;5053751;28;20029;-77
2021/05/23 08:23:53;;;;;;;2.90;2.45;;;11.40;93.00;;;;;;5053909;28;20111;-77
2021/05/23 08:26:18;;;;;;;2.55;1.70;;;11.50;92.90;;;;;;5053107;28;20358;-75
2021/05/23 08:28:44;;;;;;;1.73;1.60;;;11.60;92.90;;;;;;5053586;28;20393;-76
2021/05/23 08:31:09;;;;;;;2.95;2.10;;;11.60;92.90;;;;;;5053243;28;20021;-78
2021/05/23 08:33:35;;;;;;;3.08;2.00;;;11.60;92.90;;;;;;5035512;28;20119;-77
2021/05/23 08:36:01;;;;;;;4.55;2.88;;;11.60;92.90;;;;;;5053296;28;20029;-82
2021/05/23 08:38:26;;;;;;;3.97;2.70;;;11.60;92.80;;;;;;5053523;28;20021;-78
2021/05/23 08:40:52;;;;;;;4.07;2.97;;;11.70;92.90;;;;;;5053334;28;20020;-79
2021/05/23 08:43:19;;;;;;;4.15;2.88;;;11.80;92.80;;;;;;5053267;28;20041;-78
2021/05/23 08:45:48;;;;;;;4.32;3.05;;;11.90;92.80;;;;;;5052780;28;20028;-80
2021/05/23 08:48:17;;;;;;;4.28;2.97;;;12.00;93.00;;;;;;5035405;28;20036;-80
2021/05/23 08:50:43;;;;;;;2.53;2.03;;;12.20;92.90;;;;;;5053310;28;20024;-75
2021/05/23 08:53:09;;;;;;;4.97;3.25;;;12.30;92.60;;;;;;5053290;28;20104;-74
2021/05/23 08:55:38;;;;;;;3.70;2.70;;;12.40;92.50;;;;;;5053293;28;20021;-78
2021/05/23 08:58:04;;;;;;;3.45;2.55;;;12.50;92.40;;;;;;5035268;28;20477;-77
2021/05/23 09:00:30;;;;;;;3.80;2.05;;;12.60;92.40;;;;;;5053004;28;20104;-79
2021/05/23 09:03:01;;;;;;;3.28;2.08;;;12.70;92.30;;;;;;5052976;28;20044;-78
2021/05/23 09:05:33;;;;;;;2.25;1.90;;;12.80;92.30;;;;;;5053426;28;20037;-80
2021/05/23 09:08:00;;;;;;;1.65;1.55;;;12.70;92.30;;;;;;5053502;28;20021;-80
2021/05/23 09:10:31;;;;;;;3.10;1.70;;;12.60;92.40;;;;;;5053325;28;20051;-78
2021/05/23 09:12:57;;;;;;;3.78;2.53;;;12.60;92.40;;;;;;5054152;28;20032;-76
2021/05/23 09:15:24;;;;;;;3.10;2.22;;;12.50;92.40;;;;;;5056727;28;20028;-78
2021/05/23 09:18:01;;;;;;;3.38;2.30;;;12.50;92.30;;;;;;5057236;28;20090;-74
2021/05/23 09:20:27;;;;;;;2.90;1.90;;;12.50;92.30;;;;;;5057298;28;20029;-75
2021/05/23 09:22:53;;;;;;;3.03;1.67;;;12.40;92.50;;;;;;5039005;28;20401;-77
2021/05/23 09:25:33;;;;;;;2.03;1.42;;;12.40;92.50;;;;;;5057018;28;20020;-83
2021/05/23 09:28:00;;;;;;;2.05;1.40;;;12.60;92.50;;;;;;5057172;28;20385;-77
2021/05/23 09:30:29;;;;;;;1.65;1.40;;;12.70;92.40;;;;;;5056531;28;20021;-80
2021/05/23 09:32:57;;;;;;;1.48;1.35;;;12.80;92.20;;;;;;5057099;28;20142;-76
2021/05/23 09:35:23;;;;;;;1.00;0.95;;;12.90;92.10;;;;;;5057037;28;20480;-76
2021/05/23 09:38:05;;;;;;;1.25;1.08;;;13.10;92.10;;;;;;5056710;28;20115;-79
2021/05/23 09:40:37;;;;;;;1.80;1.30;;;13.10;91.80;;;;;;5056911;28;20029;-80
2021/05/23 09:43:04;;;;;;;1.55;1.15;;;13.00;91.90;;;;;;5056861;28;20434;-76
2021/05/23 09:45:40;;;;;;;1.55;1.10;;;13.10;92.10;;;;;;5056779;28;20112;-80
2021/05/23 09:48:08;;;;;;;0.93;0.75;;;13.10;91.80;;;;;;5038725;28;20548;-76
2021/05/23 09:50:41;;;;;;;1.38;1.15;;;13.10;91.90;;;;;;5056769;28;20028;-86
2021/05/23 09:53:21;;;;;;;1.83;1.10;;;13.20;91.90;;;;;;5056736;28;20036;-79
2021/05/23 09:56:13;;;;;;;1.00;1.00;;;13.30;91.80;;;;;;5039113;28;20017;-85
2021/05/23 09:58:45;;;;;;;1.15;1.05;;;13.50;91.80;;;;;;5056354;28;20048;-74
2021/05/23 10:01:28;;;;;;;0.75;0.75;;;13.60;91.60;;;;;;5056681;28;20029;-77
2021/05/23 10:03:56;;;;;;;1.20;0.80;;;13.70;91.30;;;;;;5038693;28;20036;-79
2021/05/23 10:06:35;;;;;;;0.77;0.75;;;13.70;91.60;;;;;;5056479;28;20017;-78
2021/05/23 10:09:01;;;;;;;0.82;0.70;;;13.80;91.60;;;;;;5056330;28;20040;-78
2021/05/23 10:11:27;;;;;;;1.60;0.60;;;13.80;91.60;;;;;;5056297;28;20382;-80
2021/05/23 10:13:53;;;;;;;1.40;1.08;;;13.90;91.60;;;;;;5055917;28;20052;-79
2021/05/23 10:16:18;;;;;;;0.80;0.80;;;14.00;91.50;;;;;;5056026;28;20373;-76
2021/05/23 10:18:45;;;;;;;1.23;1.02;;;14.10;91.50;;;;;;5056010;28;20024;-77
2021/05/23 10:21:13;;;;;;;1.80;0.85;;;14.20;91.30;;;;;;5055958;28;20079;-77
2021/05/23 10:23:46;;;;;;;0.95;0.95;;;14.20;91.40;;;;;;5055867;28;20025;-76
2021/05/23 10:26:13;;;;;;;0.85;0.85;;;14.30;91.30;;;;;;5055994;28;20021;-77
2021/05/23 10:28:42;;;;;;;2.42;1.70;;;14.50;91.30;;;;;;5054522;28;20032;-76
2021/05/23 10:31:09;;;;;;;0.98;0.90;;;14.50;91.00;;;;;;5037969;28;20412;-76
2021/05/23 10:33:35;;;;;;;1.23;0.98;;;14.60;91.20;;;;;;5055803;28;20079;-76
2021/05/23 10:36:00;;;;;;;3.10;1.45;;;14.80;91.10;;;;;;5055578;28;20025;-77
2021/05/23 10:38:27;;;;;;;1.63;1.27;;;15.00;90.90;;;;;;5055757;28;20049;-75
2021/05/23 10:40:59;;;;;;;1.00;1.00;;;14.80;90.70;;;;;;5055654;28;20112;-75
2021/05/23 10:43:31;;;;;;;1.42;1.30;;;14.60;90.90;;;;;;5037197;28;20393;-80
2021/05/23 10:46:05;;;;;;;1.20;1.10;;;14.40;91.10;;;;;;5055579;28;20021;-76
2021/05/23 10:48:30;;;;;;;1.00;1.00;;;14.30;91.10;;;;;;5055415;28;20020;-75
2021/05/23 10:50:56;;;;;;;1.38;1.27;;;14.10;91.20;;;;;;5055671;28;20044;-77
2021/05/23 10:53:33;;;;;;;1.90;1.40;;;14.10;91.10;;;;;;5037457;28;20484;-78
2021/05/23 10:55:59;;;;;;;1.60;1.30;;;14.20;91.10;;;;;;5054866;28;20552;-75
2021/05/23 10:58:26;;;;;;;1.70;1.60;;;14.20;90.90;;;;;;5055126;28;20476;-77
2021/05/23 11:00:57;;;;;;;1.65;1.55;;;14.20;91.00;;;;;;5055192;28;20028;-75
2021/05/23 11:03:25;;;;;;;1.38;1.27;;;14.10;91.00;;;;;;5055368;28;20036;-79
2021/05/23 11:06:05;;;;;;;1.88;1.50;;;14.10;91.00;;;;;;5055591;28;20548;-78
2021/05/23 11:08:31;;;;;;;;;;;14.20;91.00;;;;;;5055608;28;20029;-78
2021/05/23 11:10:57;;;;;;;2.50;1.38;;;14.20;91.10;;;;;;5054499;28;19927;-77
2021/05/23 11:13:37;;;;;;;1.15;1.05;;;14.10;90.80;;;;;;5054971;28;20480;-78
2021/05/23 11:16:14;;;;;;;2.47;1.67;;;14.30;90.80;;;;;;5037219;28;20515;-83
2021/05/23 11:18:39;;;;;;;1.33;1.23;;;14.40;90.60;;;;;;5055093;28;20029;-82
2021/05/23 11:21:12;;;;;;;1.52;1.42;;;14.40;90.50;;;;;;5054817;28;20024;-77
2021/05/23 11:23:52;;;;;;;3.47;1.98;;;14.50;90.40;;;;;;5054763;28;20033;-76
2021/05/23 11:26:18;;;;;;;2.13;1.83;;;14.50;90.20;;;;;;5054361;28;20227;-75
2021/05/23 11:28:49;;;;;;;2.05;1.70;;;14.40;90.30;;;;;;5054669;28;20044;-76
2021/05/23 11:31:30;;;;;;;2.30;1.90;;;14.50;90.30;;;;;;5036982;28;20546;-76
2021/05/23 11:33:57;;;;;;;2.17;1.90;;;14.50;90.00;;;;;;5054593;28;20374;-74
2021/05/23 11:36:28;;;;;;;1.95;1.73;;;14.60;90.00;;;;;;5053549;28;20025;-75
2021/05/23 11:38:59;;;;;;;2.67;1.83;;;14.70;90.00;;;;;;5036701;28;20021;-74
2021/05/23 11:41:47;;;;;;;2.25;1.80;;;14.80;89.60;;;;;;5053905;28;20029;-76
2021/05/23 11:44:14;;;;;;;5.43;2.10;;;14.90;89.80;;;;;;5054350;28;20118;-77
2021/05/23 11:46:42;;;;;;;2.25;2.00;;;15.10;88.80;;;;;;5036523;28;20381;-73
2021/05/23 11:49:16;;;;;;;2.15;1.95;;;15.60;88.40;;;;;;5054276;28;20033;-74
2021/05/23 11:51:41;;;;;;;2.15;1.90;;;16.30;87.80;;;;;;5036391;28;20020;-75
2021/05/23 11:54:07;;;;;;;2.42;1.92;;;16.60;86.10;;;;;;5035763;28;20090;-78
2021/05/23 11:56:35;;;;;;;1.85;1.75;;;16.60;86.20;;;;;;5036677;28;20449;-76
2021/05/23 11:59:04;;;;;;;2.72;1.88;;;16.40;86.40;;;;;;5054316;28;20037;-77
2021/05/23 12:01:45;;;;;;;2.00;1.80;;;16.30;86.80;;;;;;5054005;28;20547;-77
2021/05/23 12:04:14;;;;;;;1.90;1.73;;;16.20;86.60;;;;;;5054008;28;20025;-76
2021/05/23 12:06:41;;;;;;;1.42;1.30;;;16.20;87.00;;;;;;5054053;28;20508;-77
2021/05/23 12:09:11;;;;;;;1.40;1.30;;;16.50;86.80;;;;;;5053609;28;20029;-75
2021/05/23 12:11:42;;;;;;;2.20;1.30;;;16.90;85.50;;;;;;5036024;28;20489;-76
2021/05/23 12:14:26;;;;;;;1.50;1.40;;;17.30;84.60;;;;;;5053868;28;20091;-74
2021/05/23 12:17:04;;;;;;;1.40;1.30;;;17.40;84.50;;;;;;5053731;28;20427;-75
2021/05/23 12:19:49;;;;;;;1.60;1.40;;;17.20;84.70;;;;;;5053676;28;20029;-74
2021/05/23 12:22:24;;;;;;;1.40;1.30;;;16.90;85.10;;;;;;5053738;28;20033;-75
2021/05/23 12:24:52;;;;;;;2.50;1.10;;;16.40;85.70;;;;;;5053136;28;20389;-74
2021/05/23 12:27:26;;;;;;;1.58;1.48;;;16.40;85.90;;;;;;5053789;28;20475;-76
2021/05/23 12:29:52;;;;;;;1.33;1.23;;;16.80;85.40;;;;;;5052645;28;20065;-74
2021/05/23 12:32:20;;;;;;;1.30;1.20;;;17.20;84.90;;;;;;5053432;28;20052;-74
2021/05/23 12:34:45;;;;;;;1.27;1.17;;;17.20;84.00;;;;;;5053562;28;20021;-74
2021/05/23 12:37:13;;;;;;;1.60;1.08;;;17.00;84.20;;;;;;5053255;28;20375;-76
2021/05/23 12:39:39;;;;;;;1.48;1.20;;;16.70;84.60;;;;;;5052964;28;20516;-74
2021/05/23 12:42:05;;;;;;;1.30;1.20;;;16.90;84.30;;;;;;5053390;28;20029;-75
2021/05/23 12:44:32;;;;;;;1.90;1.25;;;17.10;83.50;;;;;;5053379;28;20148;-75
2021/05/23 12:47:10;;;;;;;1.20;1.10;;;17.40;83.10;;;;;;5053118;28;20029;-75
2021/05/23 12:49:37;;;;;;;1.50;1.40;;;17.40;82.50;;;;;;5053500;28;20017;-74
2021/05/23 12:52:06;;;;;;;1.23;1.13;;;17.40;82.70;;;;;;5052706;28;20053;-75